createdAt,value
2023-03-01T00:02:01.478Z,100998.28
2023-03-01T00:04:31.229Z,100992.94
2023-03-01T00:07:00.849Z,100999.22
2023-03-01T00:09:30.468Z,100984.94
2023-03-01T00:12:00.060Z,100984.94
2023-03-01T00:14:29.820Z,100976.78
2023-03-01T00:16:59.556Z,100982.25
2023-03-01T00:19:29.322Z,100985.00
2023-03-01T00:21:59.023Z,100985.78
2023-03-01T00:24:28.792Z,100990.28
2023-03-01T00:26:59.021Z,100980.44
2023-03-01T00:29:28.781Z,100979.69
2023-03-01T00:31:58.489Z,100984.09
2023-03-01T00:34:28.181Z,100977.16
2023-03-01T00:36:57.984Z,100984.94
2023-03-01T00:39:27.634Z,100982.25
2023-03-01T00:41:58.905Z,100978.59
2023-03-01T00:44:28.581Z,100974.84
2023-03-01T00:46:58.271Z,100975.94
2023-03-01T00:49:30.196Z,100977.63
2023-03-01T00:51:59.817Z,100979.44
2023-03-01T00:54:29.397Z,100981.28
2023-03-01T00:56:59.024Z,100976.09
2023-03-01T00:59:28.671Z,100979.59
2023-03-01T01:01:58.267Z,100970.84
2023-03-01T01:04:27.952Z,100973.50
2023-03-01T01:06:57.548Z,100972.53
2023-03-01T01:09:27.154Z,100976.16
2023-03-01T01:11:56.757Z,100970.97
2023-03-01T01:14:26.427Z,100972.66
2023-03-01T01:16:56.197Z,100960.16
2023-03-01T01:19:25.875Z,100961.88
2023-03-01T01:21:55.579Z,100963.66
2023-03-01T01:24:25.262Z,100965.50
2023-03-01T01:26:54.922Z,100965.50
2023-03-01T01:29:24.568Z,100968.16
2023-03-01T01:31:54.191Z,100968.16
2023-03-01T01:34:24.572Z,100968.31
2023-03-01T01:36:57.282Z,100974.50
2023-03-01T01:39:26.963Z,100970.13
2023-03-01T01:41:56.549Z,100971.97
2023-03-01T01:44:27.978Z,100979.09
2023-03-01T01:47:00.453Z,100971.25
2023-03-01T01:49:40.439Z,100967.59
2023-03-01T01:52:34.991Z,100965.75
2023-03-01T01:55:10.461Z,100961.56
2023-03-01T01:57:45.079Z,100959.72
2023-03-01T02:00:25.842Z,100963.25
2023-03-01T02:03:06.479Z,100963.97
2023-03-01T02:05:56.911Z,100955.09
2023-03-01T02:08:28.616Z,100958.06
2023-03-01T02:10:58.680Z,100958.16
2023-03-01T02:13:28.600Z,100950.16
2023-03-01T02:15:58.244Z,100951.00
2023-03-01T02:18:27.957Z,100949.19
2023-03-01T02:21:33.762Z,100944.72
2023-03-01T02:24:07.924Z,100950.03
2023-03-01T02:26:45.644Z,100946.78
2023-03-01T02:29:15.337Z,100956.47
2023-03-01T02:31:45.106Z,100951.28
2023-03-01T02:34:27.704Z,100947.50
2023-03-01T02:37:07.121Z,100947.50
2023-03-01T02:39:45.551Z,100946.66
2023-03-01T02:42:17.530Z,100935.97
2023-03-01T02:44:47.477Z,100933.31
2023-03-01T02:47:17.077Z,100946.66
2023-03-01T02:49:46.690Z,100940.63
2023-03-01T02:52:37.870Z,100946.22
2023-03-01T02:55:15.594Z,100939.91
2023-03-01T02:57:47.463Z,100943.28
2023-03-01T03:00:22.387Z,100946.78
2023-03-01T03:02:56.151Z,100953.25
2023-03-01T03:05:28.123Z,100942.56
2023-03-01T03:07:57.937Z,100943.56
2023-03-01T03:10:32.454Z,100947.06
2023-03-01T03:13:09.952Z,100942.72
2023-03-01T03:15:41.039Z,100939.91
2023-03-01T03:18:15.776Z,100936.66
2023-03-01T03:20:45.774Z,100933.00
2023-03-01T03:23:16.070Z,100939.19
2023-03-01T03:25:45.664Z,100928.66
2023-03-01T03:28:15.312Z,100915.47
2023-03-01T03:30:46.657Z,100909.13
2023-03-01T03:33:16.560Z,100904.06
2023-03-01T03:35:48.135Z,100901.28
2023-03-01T03:38:19.223Z,100902.97
2023-03-01T03:40:50.630Z,100895.06
2023-03-01T03:43:24.395Z,100895.06
2023-03-01T03:45:54.810Z,100883.56
2023-03-01T03:48:24.406Z,100889.63
2023-03-01T03:50:55.549Z,100879.06
2023-03-01T03:53:26.199Z,100884.28
2023-03-01T03:55:56.111Z,100876.41
2023-03-01T03:58:26.430Z,100881.72
2023-03-01T04:01:00.914Z,100870.22
2023-03-01T04:03:31.131Z,100863.06
2023-03-01T04:06:01.756Z,100857.72
2023-03-01T04:08:31.503Z,100854.22
2023-03-01T04:11:25.374Z,100844.38
2023-03-01T04:13:56.306Z,100843.69
2023-03-01T04:16:26.207Z,100845.38
2023-03-01T04:18:56.032Z,100836.53
2023-03-01T04:21:25.698Z,100832.03
2023-03-01T04:23:55.331Z,100830.34
2023-03-01T04:26:24.946Z,100818.97
2023-03-01T04:28:54.569Z,100821.53
2023-03-01T04:31:27.373Z,100817.13
2023-03-01T04:33:58.091Z,100811.81
2023-03-01T04:36:29.909Z,100815.34
2023-03-01T04:38:59.855Z,100805.25
2023-03-01T04:41:29.625Z,100811.69
2023-03-01T04:43:59.387Z,100806.19
2023-03-01T04:46:29.468Z,100808.03
2023-03-01T04:48:59.374Z,100809.03
2023-03-01T04:51:28.994Z,100811.69
2023-03-01T04:53:58.582Z,100800.19
2023-03-01T04:56:28.258Z,100796.53
2023-03-01T04:58:57.950Z,100793.84
2023-03-01T05:01:27.643Z,100792.03
2023-03-01T05:03:57.481Z,100785.00
2023-03-01T05:06:27.101Z,100785.84
2023-03-01T05:08:56.729Z,100778.00
2023-03-01T05:11:26.523Z,100784.19
2023-03-01T05:13:57.516Z,100783.34
2023-03-01T05:16:27.194Z,100777.13
2023-03-01T05:18:58.018Z,100780.53
2023-03-01T05:21:27.734Z,100776.16
2023-03-01T05:23:58.493Z,100790.47
2023-03-01T05:26:31.210Z,100793.13
2023-03-01T05:29:01.252Z,100788.66
2023-03-01T05:31:32.961Z,100784.19
2023-03-01T05:34:02.600Z,100796.66
2023-03-01T05:36:32.459Z,100782.63
2023-03-01T05:39:02.475Z,100784.28
2023-03-01T05:41:32.096Z,100791.34
2023-03-01T05:44:01.711Z,100783.34
2023-03-01T05:46:32.302Z,100783.34
2023-03-01T05:49:02.660Z,100778.28
2023-03-01T05:51:32.316Z,100781.63
2023-03-01T05:54:01.898Z,100782.47
2023-03-01T05:56:32.064Z,100776.28
2023-03-01T05:59:01.859Z,100779.09
2023-03-01T06:01:31.849Z,100789.63
2023-03-01T06:04:01.452Z,100784.44
2023-03-01T06:06:31.418Z,100783.44
2023-03-01T06:09:01.199Z,100784.28
2023-03-01T06:11:30.823Z,100765.88
2023-03-01T06:14:00.472Z,100774.75
2023-03-01T06:16:30.326Z,100771.22
2023-03-01T06:19:00.166Z,100784.56
2023-03-01T06:21:29.869Z,100781.91
2023-03-01T06:23:59.489Z,100774.75
2023-03-01T06:26:29.434Z,100785.44
2023-03-01T06:28:59.204Z,100787.38
2023-03-01T06:31:28.989Z,100786.53
2023-03-01T06:33:58.659Z,100779.53
2023-03-01T06:36:28.791Z,100784.72
2023-03-01T06:38:58.579Z,100780.38
2023-03-01T06:41:28.514Z,100785.69
2023-03-01T06:43:58.200Z,100792.72
2023-03-01T06:46:27.854Z,100793.56
2023-03-01T06:48:57.434Z,100782.03
2023-03-01T06:51:27.718Z,100775.03
2023-03-01T06:53:57.330Z,100788.38
2023-03-01T06:56:26.924Z,100784.72
2023-03-01T06:58:56.485Z,100784.88
2023-03-01T07:01:26.173Z,100788.22
2023-03-01T07:03:55.776Z,100785.69
2023-03-01T07:06:25.712Z,100795.53
2023-03-01T07:08:55.429Z,100799.16
2023-03-01T07:11:25.752Z,100801.81
2023-03-01T07:13:55.329Z,100812.50
2023-03-01T07:16:25.221Z,100806.31
2023-03-01T07:18:54.824Z,100806.31
2023-03-01T07:21:24.407Z,100815.16
2023-03-01T07:23:54.025Z,100817.81
2023-03-01T07:26:25.284Z,100824.16
2023-03-01T07:28:55.807Z,100819.81
2023-03-01T07:31:25.433Z,100820.66
2023-03-01T07:33:55.099Z,100823.31
2023-03-01T07:36:24.908Z,100825.00
2023-03-01T07:38:54.676Z,100820.78
2023-03-01T07:41:24.474Z,100821.63
2023-03-01T07:43:54.063Z,100823.47
2023-03-01T07:46:23.718Z,100819.06
2023-03-01T07:48:53.316Z,100828.78
2023-03-01T07:51:23.116Z,100830.47
2023-03-01T07:53:52.810Z,100833.25
2023-03-01T07:56:23.988Z,100828.91
2023-03-01T07:58:53.664Z,100827.91
2023-03-01T08:01:23.801Z,100831.00
2023-03-01T08:03:53.370Z,100843.22
2023-03-01T08:06:23.190Z,100853.06
2023-03-01T08:08:52.807Z,100839.72
2023-03-01T08:11:22.440Z,100835.50
2023-03-01T08:13:53.334Z,100847.00
2023-03-01T08:16:23.693Z,100837.31
2023-03-01T08:18:53.326Z,100847.16
2023-03-01T08:21:22.900Z,100841.81
2023-03-01T08:23:52.500Z,100850.66
2023-03-01T08:26:23.459Z,100848.00
2023-03-01T08:28:53.261Z,100859.66
2023-03-01T08:31:23.972Z,100864.13
2023-03-01T08:33:57.702Z,100860.75
2023-03-01T08:36:29.149Z,100855.41
2023-03-01T08:38:58.981Z,100861.72
2023-03-01T08:41:28.750Z,100853.72
2023-03-01T08:44:01.263Z,100860.91
2023-03-01T08:46:38.721Z,100853.72
2023-03-01T08:49:12.218Z,100860.75
2023-03-01T08:51:42.040Z,100859.06
2023-03-01T08:54:17.583Z,100869.84
2023-03-01T08:56:47.447Z,100856.50
2023-03-01T08:59:18.108Z,100862.84
2023-03-01T09:01:47.757Z,100869.00
2023-03-01T09:04:18.929Z,100861.16
2023-03-01T09:06:48.670Z,100870.09
2023-03-01T09:09:19.421Z,100876.31
2023-03-01T09:11:49.208Z,100893.25
2023-03-01T09:14:18.814Z,100888.09
2023-03-01T09:16:49.260Z,100892.44
2023-03-01T09:19:19.193Z,100905.75
2023-03-01T09:21:55.123Z,100914.59
2023-03-01T09:24:25.392Z,100905.75
2023-03-01T09:26:57.484Z,100924.31
2023-03-01T09:29:28.376Z,100922.75
2023-03-01T09:31:58.052Z,100919.25
2023-03-01T09:34:27.763Z,100924.69
2023-03-01T09:36:57.408Z,100930.00
2023-03-01T09:39:27.114Z,100930.75
2023-03-01T09:42:06.965Z,100936.19
2023-03-01T09:44:47.658Z,100959.34
2023-03-01T09:47:22.778Z,100958.50
2023-03-01T09:50:15.828Z,100963.72
2023-03-01T09:52:46.764Z,100971.00
2023-03-01T09:55:23.870Z,100975.34
2023-03-01T09:57:58.989Z,100973.66
2023-03-01T10:00:51.257Z,100984.47
2023-03-01T10:03:46.769Z,100992.47
2023-03-01T10:06:34.887Z,100989.81
2023-03-01T10:09:15.848Z,100994.28
2023-03-01T10:11:48.607Z,101002.28
2023-03-01T10:15:00.421Z,101011.25
2023-03-01T10:17:46.613Z,101013.06
2023-03-01T10:20:30.188Z,101018.41
2023-03-01T10:22:59.878Z,101023.72
2023-03-01T10:25:43.483Z,101027.38
2023-03-01T10:28:34.572Z,101035.38
2023-03-01T10:31:04.278Z,101036.38
2023-03-01T10:33:38.675Z,101034.66
2023-03-01T10:36:08.849Z,101038.16
2023-03-01T10:38:56.289Z,101047.97
2023-03-01T10:41:27.366Z,101045.44
2023-03-01T10:44:02.636Z,101056.81
2023-03-01T10:46:36.911Z,101056.13
2023-03-01T10:49:22.428Z,101060.47
2023-03-01T10:51:53.731Z,101050.91
2023-03-01T10:54:30.516Z,101062.44
2023-03-01T10:57:01.820Z,101062.44
2023-03-01T10:59:37.891Z,101067.75
2023-03-01T11:02:45.555Z,101077.56
2023-03-01T11:05:18.084Z,101078.69
2023-03-01T11:07:58.982Z,101084.84
2023-03-01T11:10:38.997Z,101079.66
2023-03-01T11:13:21.945Z,101089.44
2023-03-01T11:16:11.102Z,101093.94
2023-03-01T11:18:48.224Z,101088.59
2023-03-01T11:21:19.168Z,101097.72
2023-03-01T11:23:49.473Z,101097.72
2023-03-01T11:26:19.139Z,101110.19
2023-03-01T11:28:51.599Z,101100.38
2023-03-01T11:31:21.584Z,101099.53
2023-03-01T11:34:08.872Z,101098.69
2023-03-01T11:36:57.340Z,101105.97
2023-03-01T11:40:14.590Z,101105.97
2023-03-01T11:43:05.181Z,101111.41
2023-03-01T11:46:04.342Z,101121.22
2023-03-01T11:49:07.695Z,101107.91
2023-03-01T11:52:09.554Z,101111.53
2023-03-01T11:55:09.605Z,101117.59
2023-03-01T11:57:44.952Z,101119.53
2023-03-01T12:00:26.742Z,101118.69
2023-03-01T12:03:25.199Z,101117.84
2023-03-01T12:06:12.153Z,101117.84
2023-03-01T12:08:45.515Z,101128.63
2023-03-01T12:11:33.530Z,101125.00
2023-03-01T12:14:03.200Z,101129.47
2023-03-01T12:16:41.897Z,101134.09
2023-03-01T12:19:45.965Z,101137.47
2023-03-01T12:22:30.047Z,101124.28
2023-03-01T12:25:14.819Z,101138.59
2023-03-01T12:28:20.944Z,101136.75
2023-03-01T12:31:08.333Z,101132.47
2023-03-01T12:33:56.366Z,101139.63
2023-03-01T12:36:44.145Z,101144.75
2023-03-01T12:39:52.550Z,101155.53
2023-03-01T12:42:37.356Z,101154.78
2023-03-01T12:45:09.999Z,101154.91
2023-03-01T12:48:12.018Z,101161.94
2023-03-01T12:51:01.527Z,101166.44
2023-03-01T12:54:00.496Z,101164.72
2023-03-01T12:56:35.614Z,101155.78
2023-03-01T12:59:54.087Z,101165.44
2023-03-01T13:02:35.706Z,101184.22
2023-03-01T13:05:27.355Z,101178.78
2023-03-01T13:08:06.055Z,101180.84
2023-03-01T13:10:51.745Z,101187.84
2023-03-01T13:13:26.471Z,101179.84
2023-03-01T13:15:56.149Z,101193.19
2023-03-01T13:18:26.751Z,101181.69
2023-03-01T13:20:56.988Z,101194.16
2023-03-01T13:23:27.459Z,101181.53
2023-03-01T13:26:16.507Z,101192.47
2023-03-01T13:28:50.246Z,101192.34
2023-03-01T13:31:22.421Z,101194.16
2023-03-01T13:33:53.016Z,101194.16
2023-03-01T13:36:31.952Z,101195.13
2023-03-01T13:39:03.083Z,101188.09
2023-03-01T13:41:44.890Z,101194.41
2023-03-01T13:44:38.699Z,101191.75
2023-03-01T13:47:19.971Z,101201.69
2023-03-01T13:49:53.924Z,101201.78
2023-03-01T13:52:41.908Z,101193.56
2023-03-01T13:55:24.890Z,101204.34
2023-03-01T13:57:58.819Z,101207.13
2023-03-01T14:00:50.314Z,101202.63
2023-03-01T14:03:21.986Z,101208.94
2023-03-01T14:06:13.986Z,101219.47
2023-03-01T14:08:46.680Z,101212.59
2023-03-01T14:11:37.431Z,101218.75
2023-03-01T14:14:28.589Z,101219.72
2023-03-01T14:17:07.611Z,101217.06
2023-03-01T14:19:37.242Z,101224.19
2023-03-01T14:22:22.237Z,101235.72
2023-03-01T14:24:52.952Z,101217.31
2023-03-01T14:27:22.804Z,101219.00
2023-03-01T14:30:03.088Z,101228.69
2023-03-01T14:32:34.108Z,101233.16
2023-03-01T14:35:03.800Z,101232.31
2023-03-01T14:37:34.533Z,101228.69
2023-03-01T14:40:05.620Z,101228.81
2023-03-01T14:42:38.270Z,101229.66
2023-03-01T14:45:08.460Z,101233.28
2023-03-01T14:47:40.216Z,101227.22
2023-03-01T14:50:23.176Z,101232.47
2023-03-01T14:52:57.708Z,101215.88
2023-03-01T14:55:43.611Z,101222.88
2023-03-01T14:58:18.142Z,101222.13
2023-03-01T15:01:07.734Z,101222.13
2023-03-01T15:03:47.772Z,101223.13
2023-03-01T15:06:21.718Z,101223.00
2023-03-01T15:08:53.201Z,101222.13
2023-03-01T15:11:29.911Z,101220.44
2023-03-01T15:13:59.850Z,101224.09
2023-03-01T15:16:36.567Z,101221.28
2023-03-01T15:19:07.815Z,101223.13
2023-03-01T15:21:39.060Z,101226.38
2023-03-01T15:24:21.954Z,101224.81
2023-03-01T15:27:00.041Z,101231.09
2023-03-01T15:29:36.617Z,101224.94
2023-03-01T15:32:27.467Z,101225.06
2023-03-01T15:34:57.816Z,101232.09
2023-03-01T15:37:51.009Z,101236.66
2023-03-01T15:40:34.623Z,101238.50
2023-03-01T15:43:09.020Z,101240.44
2023-03-01T15:45:41.033Z,101254.47
2023-03-01T15:48:22.788Z,101258.13
2023-03-01T15:51:01.332Z,101258.97
2023-03-01T15:53:31.055Z,101258.97
2023-03-01T15:56:00.653Z,101256.44
2023-03-01T15:58:30.346Z,101266.94
2023-03-01T16:01:02.493Z,101261.63
2023-03-01T16:03:32.378Z,101276.63
2023-03-01T16:06:01.991Z,101269.75
2023-03-01T16:08:31.736Z,101271.53
2023-03-01T16:11:01.342Z,101275.19
2023-03-01T16:13:31.051Z,101285.00
2023-03-01T16:16:01.612Z,101285.00
2023-03-01T16:18:31.257Z,101291.06
2023-03-01T16:21:00.940Z,101293.97
2023-03-01T16:23:30.498Z,101294.81
2023-03-01T16:26:03.220Z,101292.13
2023-03-01T16:28:32.823Z,101300.13
2023-03-01T16:31:03.989Z,101301.09
2023-03-01T16:33:34.354Z,101293.34
2023-03-01T16:36:09.575Z,101289.72
2023-03-01T16:38:39.282Z,101288.88
2023-03-01T16:41:10.317Z,101300.38
2023-03-01T16:43:39.914Z,101302.19
2023-03-01T16:46:20.686Z,101297.69
2023-03-01T16:48:50.429Z,101303.16
2023-03-01T16:51:20.368Z,101305.81
2023-03-01T16:53:50.038Z,101300.38
2023-03-01T16:56:19.710Z,101298.78
2023-03-01T16:58:49.317Z,101293.44
2023-03-01T17:01:21.099Z,101299.03
2023-03-01T17:03:51.338Z,101300.72
2023-03-01T17:06:23.281Z,101305.91
2023-03-01T17:08:52.869Z,101311.38
2023-03-01T17:11:22.799Z,101298.91
2023-03-01T17:13:52.434Z,101315.88
2023-03-01T17:16:23.063Z,101333.66
2023-03-01T17:18:52.811Z,101310.41
2023-03-01T17:21:22.418Z,101307.03
2023-03-01T17:23:53.637Z,101307.03
2023-03-01T17:26:23.270Z,101307.13
2023-03-01T17:28:54.176Z,101305.22
2023-03-01T17:31:23.934Z,101311.47
2023-03-01T17:33:54.652Z,101307.13
2023-03-01T17:36:25.684Z,101310.63
2023-03-01T17:38:55.312Z,101299.03
2023-03-01T17:41:26.578Z,101294.66
2023-03-01T17:43:56.268Z,101298.28
2023-03-01T17:46:26.277Z,101303.63
2023-03-01T17:48:56.004Z,101299.13
2023-03-01T17:51:25.665Z,101305.56
2023-03-01T17:53:55.257Z,101286.94
2023-03-01T17:56:25.049Z,101296.72
2023-03-01T17:58:54.647Z,101298.53
2023-03-01T18:01:25.048Z,101296.84
2023-03-01T18:03:55.313Z,101299.50
2023-03-01T18:06:29.914Z,101290.75
2023-03-01T18:08:59.809Z,101289.81
2023-03-01T18:11:29.630Z,101278.44
2023-03-01T18:13:59.393Z,101285.56
2023-03-01T18:16:30.253Z,101282.91
2023-03-01T18:19:00.225Z,101290.91
2023-03-01T18:21:31.196Z,101291.88
2023-03-01T18:24:03.790Z,101304.34
2023-03-01T18:26:33.702Z,101306.03
2023-03-01T18:29:05.906Z,101306.25
2023-03-01T18:31:35.652Z,101311.59
2023-03-01T18:34:05.208Z,101304.44
2023-03-01T18:36:36.454Z,101303.81
2023-03-01T18:39:07.405Z,101305.41
2023-03-01T18:41:37.113Z,101311.59
2023-03-01T18:44:07.093Z,101305.53
2023-03-01T18:46:38.902Z,101309.16
2023-03-01T18:49:09.466Z,101317.88
2023-03-01T18:51:39.302Z,101318.72
2023-03-01T18:54:08.960Z,101315.22
2023-03-01T18:56:38.605Z,101317.97
2023-03-01T18:59:08.185Z,101323.44
2023-03-01T19:01:38.274Z,101331.31
2023-03-01T19:04:08.163Z,101326.94
2023-03-01T19:06:37.836Z,101333.03
2023-03-01T19:09:08.419Z,101327.06
2023-03-01T19:11:38.100Z,101337.59
2023-03-01T19:14:07.837Z,101327.06
2023-03-01T19:16:37.523Z,101332.63
2023-03-01T19:19:07.900Z,101329.97
2023-03-01T19:21:37.641Z,101337.81
2023-03-01T19:24:07.596Z,101343.28
2023-03-01T19:26:37.256Z,101337.97
2023-03-01T19:29:07.817Z,101337.09
2023-03-01T19:31:37.577Z,101343.38
2023-03-01T19:34:12.104Z,101337.09
2023-03-01T19:36:44.063Z,101343.50
2023-03-01T19:39:14.949Z,101340.84
2023-03-01T19:41:45.570Z,101342.53
2023-03-01T19:44:15.691Z,101342.53
2023-03-01T19:46:45.451Z,101351.38
2023-03-01T19:49:15.045Z,101340.97
2023-03-01T19:51:44.652Z,101345.31
2023-03-01T19:54:16.257Z,101340.72
2023-03-01T19:56:45.889Z,101348.84
2023-03-01T19:59:15.576Z,101348.84
2023-03-01T20:01:45.752Z,101345.44
2023-03-01T20:04:15.394Z,101344.47
2023-03-01T20:06:47.499Z,101350.78
2023-03-01T20:09:21.917Z,101354.28
2023-03-01T20:11:53.103Z,101357.78
2023-03-01T20:14:24.008Z,101362.28
2023-03-01T20:16:54.195Z,101371.09
2023-03-01T20:19:23.904Z,101376.44
2023-03-01T20:21:53.456Z,101375.59
2023-03-01T20:24:23.147Z,101367.69
2023-03-01T20:26:52.833Z,101380.16
2023-03-01T20:29:23.554Z,101377.63
2023-03-01T20:31:53.213Z,101388.91
2023-03-01T20:34:22.920Z,101391.66
2023-03-01T20:36:52.640Z,101390.94
2023-03-01T20:39:22.347Z,101399.88
2023-03-01T20:41:51.960Z,101400.75
2023-03-01T20:44:21.575Z,101401.69
2023-03-01T20:46:52.306Z,101423.81
2023-03-01T20:49:23.035Z,101425.88
2023-03-01T20:51:52.650Z,101419.69
2023-03-01T20:54:22.277Z,101399.25
2023-03-01T20:56:52.400Z,101399.25
2023-03-01T20:59:22.024Z,101401.31
2023-03-01T21:01:51.673Z,101411.09
2023-03-01T21:04:21.451Z,101420.88
2023-03-01T21:06:51.027Z,101418.22
2023-03-01T21:09:20.755Z,101423.53
2023-03-01T21:11:52.560Z,101429.72
2023-03-01T21:14:23.066Z,101434.19
2023-03-01T21:16:52.710Z,101434.41
2023-03-01T21:19:25.083Z,101430.81
2023-03-01T21:21:55.430Z,101428.47
2023-03-01T21:24:25.107Z,101429.34
2023-03-01T21:26:54.729Z,101424.88
2023-03-01T21:29:24.366Z,101434.53
2023-03-01T21:31:54.262Z,101426.78
2023-03-01T21:34:23.861Z,101429.34
2023-03-01T21:36:53.438Z,101434.78
2023-03-01T21:39:23.791Z,101445.03
2023-03-01T21:41:53.412Z,101446.66
2023-03-01T21:44:22.989Z,101448.38
2023-03-01T21:46:52.822Z,101437.84
2023-03-01T21:49:22.939Z,101450.44
2023-03-01T21:51:52.612Z,101456.44
2023-03-01T21:54:22.442Z,101458.09
2023-03-01T21:56:52.578Z,101453.78
2023-03-01T21:59:23.419Z,101464.06
2023-03-01T22:01:53.590Z,101470.56
2023-03-01T22:04:24.999Z,101462.59
2023-03-01T22:06:55.965Z,101474.50
2023-03-01T22:09:25.980Z,101468.38
2023-03-01T22:12:03.825Z,101475.91
2023-03-01T22:14:34.096Z,101476.78
2023-03-01T22:17:03.773Z,101479.53
2023-03-01T22:19:33.763Z,101481.31
2023-03-01T22:22:03.334Z,101481.75
2023-03-01T22:24:32.958Z,101493.03
2023-03-01T22:27:02.651Z,101500.81
2023-03-01T22:29:32.247Z,101505.72
2023-03-01T22:32:01.910Z,101515.50
2023-03-01T22:34:32.227Z,101513.13
2023-03-01T22:37:01.946Z,101511.19
2023-03-01T22:39:31.668Z,101516.38
2023-03-01T22:42:01.271Z,101525.69
2023-03-01T22:44:30.964Z,101533.16
2023-03-01T22:47:00.990Z,101535.94
2023-03-01T22:49:30.690Z,101542.25
2023-03-01T22:52:01.294Z,101546.75
2023-03-01T22:54:31.198Z,101551.81
2023-03-01T22:57:01.266Z,101550.22
2023-03-01T22:59:31.128Z,101544.34
2023-03-01T23:02:00.824Z,101547.56
2023-03-01T23:04:30.570Z,101544.81
2023-03-01T23:07:00.272Z,101537.97
2023-03-01T23:09:32.278Z,101538.47
2023-03-01T23:12:02.970Z,101534.13
2023-03-01T23:14:34.126Z,101546.25
2023-03-01T23:17:04.023Z,101555.72
2023-03-01T23:19:34.689Z,101575.75
2023-03-01T23:22:04.320Z,101580.00
2023-03-01T23:24:34.191Z,101579.88
2023-03-01T23:27:04.338Z,101577.34
2023-03-01T23:29:34.170Z,101581.25
2023-03-01T23:32:04.002Z,101594.72
2023-03-01T23:34:33.797Z,101596.09
2023-03-01T23:37:03.729Z,101608.41
2023-03-01T23:39:34.260Z,101609.63
2023-03-01T23:42:03.963Z,101619.59
2023-03-01T23:44:33.779Z,101609.16
2023-03-01T23:47:05.083Z,101619.09
2023-03-01T23:49:34.788Z,101624.84
2023-03-01T23:52:04.492Z,101618.94
2023-03-01T23:54:34.228Z,101623.16
2023-03-01T23:57:04.055Z,101620.97
2023-03-01T23:59:33.708Z,101636.34
